createdAt,value
2022-08-26T00:01:44.047Z,11.27
2022-08-26T00:04:11.863Z,19.13
2022-08-26T00:06:39.074Z,20.48
2022-08-26T00:09:09.986Z,18.67
2022-08-26T00:11:36.981Z,17.25
2022-08-26T00:14:03.942Z,12.90
2022-08-26T00:16:32.149Z,14.50
2022-08-26T00:18:59.311Z,15.30
2022-08-26T00:21:26.625Z,15.55
2022-08-26T00:23:54.519Z,17.48
2022-08-26T00:26:21.354Z,19.85
2022-08-26T00:28:49.638Z,19.10
2022-08-26T00:31:16.856Z,16.17
2022-08-26T00:33:43.947Z,15.13
2022-08-26T00:36:20.073Z,16.48
2022-08-26T00:38:47.161Z,17.38
2022-08-26T00:41:14.207Z,14.77
2022-08-26T00:43:46.206Z,13.82
2022-08-26T00:46:20.746Z,14.90
2022-08-26T00:48:49.435Z,21.40
2022-08-26T00:51:20.024Z,18.10
2022-08-26T00:53:53.356Z,17.25
2022-08-26T00:56:27.524Z,13.40
2022-08-26T00:58:57.019Z,14.85
2022-08-26T01:01:26.351Z,14.05
2022-08-26T01:03:54.309Z,14.93
2022-08-26T01:06:22.554Z,14.27
2022-08-26T01:08:52.184Z,16.15
2022-08-26T01:11:19.884Z,19.42
2022-08-26T01:13:47.624Z,18.73
2022-08-26T01:16:16.515Z,18.33
2022-08-26T01:18:44.081Z,15.70
2022-08-26T01:21:22.579Z,18.88
2022-08-26T01:23:51.335Z,16.70
2022-08-26T01:26:38.768Z,15.50
2022-08-26T01:29:07.140Z,23.08
2022-08-26T01:31:41.806Z,16.92
2022-08-26T01:34:23.654Z,14.48
2022-08-26T01:36:55.341Z,22.25
2022-08-26T01:39:22.203Z,14.60
2022-08-26T01:41:53.578Z,20.60
2022-08-26T01:44:23.954Z,20.17
2022-08-26T01:46:51.784Z,18.60
2022-08-26T01:49:19.735Z,17.73
2022-08-26T01:51:47.682Z,17.77
2022-08-26T01:54:14.511Z,23.10
2022-08-26T01:56:41.756Z,17.33
2022-08-26T01:59:11.123Z,14.80
2022-08-26T02:01:39.321Z,20.73
2022-08-26T02:04:25.205Z,13.77
2022-08-26T02:06:53.575Z,18.15
2022-08-26T02:09:20.879Z,20.02
2022-08-26T02:11:48.721Z,18.92
2022-08-26T02:14:23.275Z,16.13
2022-08-26T02:16:54.519Z,22.20
2022-08-26T02:19:24.250Z,24.05
2022-08-26T02:21:52.671Z,19.38
2022-08-26T02:24:27.845Z,18.33
2022-08-26T02:26:55.478Z,23.00
2022-08-26T02:29:27.045Z,19.27
2022-08-26T02:31:57.960Z,21.65
2022-08-26T02:34:32.858Z,17.90
2022-08-26T02:37:02.440Z,27.33
2022-08-26T02:39:31.398Z,21.58
2022-08-26T02:41:59.762Z,20.73
2022-08-26T02:44:27.469Z,24.27
2022-08-26T02:46:55.040Z,28.23
2022-08-26T02:49:23.807Z,18.60
2022-08-26T02:51:51.456Z,22.98
2022-08-26T02:54:21.317Z,22.15
2022-08-26T02:56:48.903Z,18.90
2022-08-26T02:59:16.188Z,32.25
2022-08-26T03:01:45.082Z,20.45
2022-08-26T03:04:12.733Z,23.90
2022-08-26T03:06:41.628Z,26.05
2022-08-26T03:09:09.138Z,22.17
2022-08-26T03:11:36.785Z,21.77
2022-08-26T03:14:04.790Z,25.00
2022-08-26T03:16:33.704Z,26.65
2022-08-26T03:19:02.422Z,20.17
2022-08-26T03:21:30.447Z,25.15
2022-08-26T03:23:58.704Z,27.17
2022-08-26T03:26:26.992Z,23.88
2022-08-26T03:29:13.245Z,20.58
2022-08-26T03:31:40.620Z,21.95
2022-08-26T03:34:07.598Z,23.23
2022-08-26T03:36:35.097Z,20.55
2022-08-26T03:39:02.502Z,19.67
2022-08-26T03:41:29.757Z,19.92
2022-08-26T03:44:01.037Z,24.35
2022-08-26T03:46:29.128Z,18.58
2022-08-26T03:48:56.563Z,22.67
2022-08-26T03:51:23.530Z,19.95
2022-08-26T03:53:51.197Z,23.15
2022-08-26T03:56:18.063Z,21.70
2022-08-26T03:58:45.120Z,25.58
2022-08-26T04:01:14.133Z,18.08
2022-08-26T04:04:00.332Z,23.48
2022-08-26T04:06:39.195Z,21.52
2022-08-26T04:09:09.443Z,22.88
2022-08-26T04:11:39.444Z,18.42
2022-08-26T04:14:10.079Z,19.08
2022-08-26T04:16:37.276Z,18.52
2022-08-26T04:19:04.384Z,22.45
2022-08-26T04:21:32.256Z,21.15
2022-08-26T04:23:59.209Z,19.83
2022-08-26T04:26:42.761Z,20.65
2022-08-26T04:29:18.125Z,18.10
2022-08-26T04:31:45.590Z,24.52
2022-08-26T04:34:14.207Z,24.90
2022-08-26T04:36:43.618Z,23.98
2022-08-26T04:39:12.368Z,20.45
2022-08-26T04:41:40.125Z,24.20
2022-08-26T04:44:07.821Z,26.42
2022-08-26T04:46:35.356Z,19.77
2022-08-26T04:49:08.570Z,24.83
2022-08-26T04:51:36.336Z,20.02
2022-08-26T04:54:07.472Z,22.90
2022-08-26T04:56:38.067Z,20.77
2022-08-26T04:59:06.504Z,23.02
2022-08-26T05:01:35.081Z,22.58
2022-08-26T05:04:08.091Z,26.60
2022-08-26T05:06:36.914Z,23.42
2022-08-26T05:09:04.417Z,29.55
2022-08-26T05:11:31.338Z,21.63
2022-08-26T05:14:02.324Z,19.45
2022-08-26T05:16:31.340Z,20.42
2022-08-26T05:18:58.361Z,23.48
2022-08-26T05:21:27.199Z,26.48
2022-08-26T05:23:57.412Z,22.13
2022-08-26T05:26:26.424Z,22.45
2022-08-26T05:28:54.961Z,22.55
2022-08-26T05:31:25.700Z,19.70
2022-08-26T05:33:52.699Z,23.45
2022-08-26T05:36:21.706Z,30.05
2022-08-26T05:38:49.409Z,17.42
2022-08-26T05:41:24.973Z,19.15
2022-08-26T05:43:52.998Z,21.70
2022-08-26T05:46:20.173Z,27.92
2022-08-26T05:48:47.366Z,27.33
2022-08-26T05:51:14.838Z,21.70
2022-08-26T05:53:43.867Z,25.13
2022-08-26T05:56:24.823Z,25.63
2022-08-26T05:58:52.236Z,29.90
2022-08-26T06:01:21.950Z,23.60
2022-08-26T06:03:52.658Z,24.90
2022-08-26T06:06:27.921Z,30.58
2022-08-26T06:08:57.987Z,20.98
2022-08-26T06:11:26.196Z,23.02
2022-08-26T06:13:54.570Z,20.48
2022-08-26T06:16:24.265Z,23.98
2022-08-26T06:18:53.135Z,21.38
2022-08-26T06:21:31.500Z,24.70
2022-08-26T06:24:20.532Z,26.20
2022-08-26T06:26:50.898Z,25.00
2022-08-26T06:29:24.558Z,30.27
2022-08-26T06:31:53.534Z,35.40
2022-08-26T06:34:20.494Z,22.00
2022-08-26T06:36:47.891Z,23.02
2022-08-26T06:39:17.230Z,20.88
2022-08-26T06:41:45.690Z,27.20
2022-08-26T06:44:15.238Z,19.98
2022-08-26T06:46:43.345Z,27.55
2022-08-26T06:49:11.522Z,19.42
2022-08-26T06:51:40.852Z,20.63
2022-08-26T06:54:08.780Z,25.58
2022-08-26T06:56:42.780Z,20.30
2022-08-26T06:59:11.343Z,35.67
2022-08-26T07:01:44.692Z,23.98
2022-08-26T07:04:15.769Z,23.83
2022-08-26T07:06:49.084Z,20.95
2022-08-26T07:09:18.037Z,22.75
2022-08-26T07:11:45.477Z,29.77
2022-08-26T07:14:12.755Z,27.80
2022-08-26T07:16:41.358Z,25.77
2022-08-26T07:19:11.138Z,28.15
2022-08-26T07:21:41.539Z,24.33
2022-08-26T07:24:10.523Z,25.08
2022-08-26T07:26:38.627Z,30.90
2022-08-26T07:29:06.917Z,38.72
2022-08-26T07:31:39.556Z,37.60
2022-08-26T07:34:10.858Z,39.00
2022-08-26T07:36:37.958Z,40.95
2022-08-26T07:39:05.895Z,28.17
2022-08-26T07:41:33.552Z,34.03
2022-08-26T07:44:01.081Z,31.55
2022-08-26T07:46:30.202Z,36.35
2022-08-26T07:48:57.959Z,46.47
2022-08-26T07:51:25.832Z,39.05
2022-08-26T07:53:54.405Z,47.60
2022-08-26T07:56:23.386Z,52.30
2022-08-26T07:58:52.189Z,55.88
2022-08-26T08:01:21.481Z,54.80
2022-08-26T08:03:51.649Z,64.90
2022-08-26T08:06:20.069Z,63.42
2022-08-26T08:08:47.418Z,71.78
2022-08-26T08:11:14.682Z,67.50
2022-08-26T08:13:41.927Z,82.32
2022-08-26T08:16:12.427Z,86.22
2022-08-26T08:18:40.417Z,94.00
2022-08-26T08:21:23.766Z,101.03
2022-08-26T08:23:55.538Z,105.45
2022-08-26T08:26:23.701Z,101.40
2022-08-26T08:28:51.478Z,109.38
2022-08-26T08:31:52.573Z,105.15
2022-08-26T08:34:10.826Z,97.40
2022-08-26T08:36:37.648Z,99.97
2022-08-26T08:39:06.450Z,100.80
2022-08-26T08:42:04.327Z,106.78
2022-08-26T08:44:31.578Z,110.20
2022-08-26T08:47:04.817Z,107.43
2022-08-26T08:49:33.703Z,108.28
2022-08-26T08:52:11.383Z,118.55
2022-08-26T08:54:38.615Z,109.30
2022-08-26T08:57:13.087Z,114.18
2022-08-26T08:59:47.657Z,109.47
2022-08-26T09:02:47.979Z,107.03
2022-08-26T09:05:31.984Z,113.38
2022-08-26T09:08:16.092Z,113.22
2022-08-26T09:11:00.471Z,111.68
2022-08-26T09:13:28.273Z,119.22
2022-08-26T09:16:11.756Z,115.30
2022-08-26T09:19:05.009Z,116.78
2022-08-26T09:23:59.987Z,120.97
2022-08-26T09:26:47.294Z,119.50
2022-08-26T09:29:29.469Z,113.30
2022-08-26T09:32:22.232Z,112.25
2022-08-26T09:34:59.344Z,115.95
2022-08-26T09:37:42.534Z,111.18
2022-08-26T09:40:42.564Z,113.30
2022-08-26T09:43:09.996Z,113.20
2022-08-26T09:45:38.942Z,118.97
2022-08-26T09:48:07.335Z,109.00
2022-08-26T09:50:40.957Z,105.53
2022-08-26T09:53:21.045Z,110.75
2022-08-26T09:56:10.762Z,108.38
2022-08-26T09:58:40.430Z,108.00
2022-08-26T10:01:17.049Z,105.50
2022-08-26T10:03:47.119Z,105.88
2022-08-26T10:06:20.961Z,100.15
2022-08-26T10:09:14.988Z,98.20
2022-08-26T10:11:49.002Z,106.78
2022-08-26T10:14:24.429Z,100.45
2022-08-26T10:17:03.637Z,96.95
2022-08-26T10:19:56.721Z,89.15
2022-08-26T10:22:49.133Z,94.97
2022-08-26T10:25:22.303Z,95.93
2022-08-26T10:28:46.737Z,93.13
2022-08-26T10:31:40.275Z,91.45
2022-08-26T10:34:09.630Z,85.18
2022-08-26T10:39:58.474Z,82.65
2022-08-26T10:42:39.375Z,83.00
2022-08-26T10:45:15.505Z,84.28
2022-08-26T10:47:57.601Z,77.13
2022-08-26T10:50:28.377Z,78.30
2022-08-26T10:53:05.684Z,77.07
2022-08-26T10:55:43.367Z,73.22
2022-08-26T10:58:36.448Z,74.53
2022-08-26T11:01:29.226Z,70.75
2022-08-26T11:04:18.537Z,76.70
2022-08-26T11:06:49.496Z,78.13
2022-08-26T11:09:43.211Z,65.07
2022-08-26T11:12:10.478Z,76.85
2022-08-26T11:14:40.705Z,77.30
2022-08-26T11:17:45.891Z,69.43
2022-08-26T11:20:34.246Z,69.53
2022-08-26T11:23:13.857Z,78.55
2022-08-26T11:25:59.101Z,69.13
2022-08-26T11:28:47.974Z,66.50
2022-08-26T11:31:27.414Z,67.25
2022-08-26T11:33:56.621Z,71.93
2022-08-26T11:36:41.965Z,64.90
2022-08-26T11:39:28.986Z,65.40
2022-08-26T11:42:00.307Z,55.40
2022-08-26T11:44:37.408Z,49.97
2022-08-26T11:47:08.010Z,53.67
2022-08-26T11:49:38.808Z,59.90
2022-08-26T11:52:20.781Z,52.25
2022-08-26T11:55:20.417Z,52.50
2022-08-26T11:57:53.725Z,61.53
2022-08-26T12:00:33.386Z,56.70
2022-08-26T12:03:02.639Z,62.88
2022-08-26T12:05:31.570Z,60.65
2022-08-26T12:08:04.171Z,59.75
2022-08-26T12:10:33.800Z,60.58
2022-08-26T12:13:02.289Z,62.45
2022-08-26T12:15:31.351Z,60.33
2022-08-26T12:18:00.459Z,60.42
2022-08-26T12:20:54.637Z,57.50
2022-08-26T12:23:36.519Z,59.95
2022-08-26T12:26:18.196Z,56.25
2022-08-26T12:28:48.780Z,55.95
2022-08-26T12:31:31.315Z,61.45
2022-08-26T12:34:00.188Z,58.78
2022-08-26T12:36:31.676Z,54.65
2022-08-26T12:39:13.025Z,60.33
2022-08-26T12:41:47.529Z,53.95
2022-08-26T12:44:33.497Z,54.58
2022-08-26T12:47:42.028Z,56.72
2022-08-26T12:50:18.856Z,58.97
2022-08-26T12:52:54.379Z,59.55
2022-08-26T12:55:35.625Z,56.90
2022-08-26T12:58:35.923Z,61.13
2022-08-26T13:01:06.487Z,53.75
2022-08-26T13:03:43.555Z,52.65
2022-08-26T13:06:22.385Z,54.85
2022-08-26T13:08:53.798Z,56.22
2022-08-26T13:11:27.091Z,53.78
2022-08-26T13:13:57.086Z,48.83
2022-08-26T13:16:24.958Z,47.20
2022-08-26T13:18:54.692Z,47.42
2022-08-26T13:21:24.376Z,55.08
2022-08-26T13:23:52.260Z,44.72
2022-08-26T13:26:19.680Z,47.10
2022-08-26T13:28:59.158Z,45.00
2022-08-26T13:31:30.978Z,41.85
2022-08-26T13:33:57.992Z,42.85
2022-08-26T13:36:24.964Z,45.22
2022-08-26T13:38:52.140Z,46.22
2022-08-26T13:41:23.624Z,55.63
2022-08-26T13:43:57.017Z,39.97
2022-08-26T13:46:27.196Z,44.33
2022-08-26T13:48:54.639Z,43.13
2022-08-26T13:51:22.894Z,49.58
2022-08-26T13:53:50.550Z,47.88
2022-08-26T13:56:18.882Z,44.75
2022-08-26T13:58:46.848Z,47.95
2022-08-26T14:01:15.661Z,45.63
2022-08-26T14:03:43.849Z,50.92
2022-08-26T14:06:10.947Z,39.28
2022-08-26T14:08:39.316Z,45.90
2022-08-26T14:11:06.736Z,46.38
2022-08-26T14:13:33.970Z,45.15
2022-08-26T14:16:01.805Z,42.80
2022-08-26T14:18:38.390Z,42.92
2022-08-26T14:21:12.851Z,44.17
2022-08-26T14:23:40.254Z,41.78
2022-08-26T14:26:19.062Z,35.78
2022-08-26T14:28:59.576Z,38.75
2022-08-26T14:31:29.273Z,35.85
2022-08-26T14:34:03.774Z,42.38
2022-08-26T14:36:32.504Z,41.05
2022-08-26T14:39:11.549Z,37.30
2022-08-26T14:41:54.584Z,39.83
2022-08-26T14:44:24.432Z,42.90
2022-08-26T14:46:52.943Z,33.30
2022-08-26T14:49:20.598Z,36.92
2022-08-26T14:51:47.529Z,39.20
2022-08-26T14:54:18.318Z,39.05
2022-08-26T14:56:54.192Z,41.35
2022-08-26T14:59:23.643Z,36.20
2022-08-26T15:01:50.807Z,36.95
2022-08-26T15:04:18.455Z,40.13
2022-08-26T15:06:46.232Z,39.45
2022-08-26T15:09:13.541Z,40.40
2022-08-26T15:11:40.417Z,36.35
2022-08-26T15:14:07.618Z,38.42
2022-08-26T15:16:47.886Z,33.38
2022-08-26T15:19:15.464Z,33.78
2022-08-26T15:21:43.522Z,34.88
2022-08-26T15:24:10.501Z,31.48
2022-08-26T15:26:37.621Z,29.88
2022-08-26T15:29:05.329Z,36.00
2022-08-26T15:31:33.516Z,31.42
2022-08-26T15:34:03.414Z,27.13
2022-08-26T15:36:31.389Z,25.45
2022-08-26T15:39:00.321Z,33.33
2022-08-26T15:41:27.894Z,25.88
2022-08-26T15:43:54.824Z,26.35
2022-08-26T15:46:21.922Z,28.40
2022-08-26T15:51:54.527Z,21.73
2022-08-26T15:54:23.241Z,19.88
2022-08-26T15:56:52.579Z,22.55
2022-08-26T15:59:20.957Z,24.65
2022-08-26T16:01:48.429Z,22.95
2022-08-26T16:04:18.026Z,20.38
2022-08-26T16:06:46.848Z,19.40
2022-08-26T16:09:13.818Z,24.52
2022-08-26T16:11:40.964Z,23.08
2022-08-26T16:14:08.400Z,16.13
2022-08-26T16:16:39.488Z,24.75
2022-08-26T16:19:07.831Z,20.63
2022-08-26T16:21:35.806Z,22.70
2022-08-26T16:24:03.544Z,19.80
2022-08-26T16:26:32.905Z,25.15
2022-08-26T16:29:05.706Z,31.55
2022-08-26T16:33:59.949Z,22.70
2022-08-26T16:36:27.431Z,23.27
2022-08-26T16:38:56.359Z,20.70
2022-08-26T16:41:24.722Z,25.15
2022-08-26T16:43:51.902Z,25.98
2022-08-26T16:46:19.167Z,23.27
2022-08-26T16:48:46.325Z,25.50
2022-08-26T16:51:16.191Z,26.05
2022-08-26T16:53:44.562Z,33.05
2022-08-26T16:56:20.031Z,19.45
2022-08-26T16:58:48.356Z,27.38
2022-08-26T17:01:16.046Z,22.95
2022-08-26T17:03:43.789Z,25.05
2022-08-26T17:06:10.763Z,21.65
2022-08-26T17:08:39.203Z,18.00
2022-08-26T17:11:06.908Z,24.50
2022-08-26T17:13:49.155Z,25.10
2022-08-26T17:16:47.893Z,22.67
2022-08-26T17:19:14.922Z,23.52
2022-08-26T17:21:41.958Z,22.25
2022-08-26T17:24:08.961Z,27.95
2022-08-26T17:26:37.331Z,20.25
2022-08-26T17:29:06.263Z,20.15
2022-08-26T17:31:33.335Z,22.38
2022-08-26T17:34:00.932Z,20.73
2022-08-26T17:36:28.445Z,24.33
2022-08-26T17:38:56.389Z,19.30
2022-08-26T17:41:23.300Z,15.40
2022-08-26T17:43:50.294Z,15.18
2022-08-26T17:46:17.440Z,16.42
2022-08-26T17:48:44.351Z,20.50
2022-08-26T17:51:13.836Z,18.77
2022-08-26T17:53:41.861Z,14.43
2022-08-26T17:56:11.255Z,28.27
2022-08-26T17:58:38.791Z,17.70
2022-08-26T18:01:06.647Z,16.27
2022-08-26T18:03:33.833Z,22.20
2022-08-26T18:06:01.054Z,19.55
2022-08-26T18:08:27.908Z,18.25
2022-08-26T18:10:54.752Z,16.58
2022-08-26T18:13:21.837Z,22.05
2022-08-26T18:15:48.816Z,15.00
2022-08-26T18:18:16.022Z,24.58
2022-08-26T18:20:44.532Z,23.20
2022-08-26T18:23:12.534Z,19.95
2022-08-26T18:25:41.526Z,19.10
2022-08-26T18:28:08.452Z,18.52
2022-08-26T18:30:35.474Z,14.73
2022-08-26T18:33:02.461Z,14.35
2022-08-26T18:35:30.437Z,12.38
2022-08-26T18:37:58.470Z,13.88
2022-08-26T18:40:39.373Z,13.65
2022-08-26T18:43:06.219Z,14.77
2022-08-26T18:45:33.099Z,18.33
2022-08-26T18:48:00.789Z,16.83
2022-08-26T18:50:28.132Z,15.73
2022-08-26T18:52:54.996Z,16.58
2022-08-26T18:55:22.173Z,18.80
2022-08-26T18:57:49.584Z,18.83
2022-08-26T19:00:17.537Z,17.75
2022-08-26T19:02:50.506Z,19.88
2022-08-26T19:05:19.805Z,19.77
2022-08-26T19:07:47.974Z,17.13
2022-08-26T19:10:15.054Z,18.65
2022-08-26T19:12:42.332Z,20.80
2022-08-26T19:15:09.496Z,20.02
2022-08-26T19:17:36.431Z,24.23
2022-08-26T19:20:03.906Z,22.90
2022-08-26T19:22:30.770Z,14.63
2022-08-26T19:24:57.584Z,18.55
2022-08-26T19:27:24.529Z,18.25
2022-08-26T19:29:51.501Z,19.65
2022-08-26T19:32:24.106Z,22.70
2022-08-26T19:34:52.110Z,17.65
2022-08-26T19:37:20.058Z,14.85
2022-08-26T19:39:47.690Z,22.67
2022-08-26T19:42:14.988Z,23.10
2022-08-26T19:45:00.337Z,25.55
2022-08-26T19:47:27.352Z,16.60
2022-08-26T19:49:55.440Z,21.75
2022-08-26T19:52:23.679Z,14.35
2022-08-26T19:54:57.167Z,20.17
2022-08-26T19:57:24.115Z,29.55
2022-08-26T19:59:50.971Z,23.23
2022-08-26T20:02:18.204Z,21.13
2022-08-26T20:04:45.796Z,26.70
2022-08-26T20:07:18.142Z,17.50
2022-08-26T20:09:46.796Z,21.23
2022-08-26T20:12:13.929Z,22.73
2022-08-26T20:14:41.372Z,16.08
2022-08-26T20:17:08.399Z,21.08
2022-08-26T20:19:54.202Z,21.13
2022-08-26T20:22:21.447Z,15.60
2022-08-26T20:24:49.388Z,21.02
2022-08-26T20:27:16.303Z,20.63
2022-08-26T20:29:43.172Z,17.02
2022-08-26T20:32:10.814Z,21.58
2022-08-26T20:34:39.726Z,20.80
2022-08-26T20:37:08.427Z,17.17
2022-08-26T20:39:35.370Z,17.38
2022-08-26T20:42:02.810Z,14.45
2022-08-26T20:44:29.985Z,16.42
2022-08-26T20:46:56.839Z,16.83
2022-08-26T20:49:23.699Z,16.70
2022-08-26T20:51:51.549Z,22.17
2022-08-26T20:54:27.542Z,14.48
2022-08-26T20:56:56.383Z,14.98
2022-08-26T20:59:23.480Z,15.95
2022-08-26T21:01:52.129Z,12.77
2022-08-26T21:04:21.838Z,18.48
2022-08-26T21:06:52.215Z,15.82
2022-08-26T21:09:19.447Z,14.65
2022-08-26T21:11:46.293Z,19.80
2022-08-26T21:14:17.041Z,14.88
2022-08-26T21:16:45.448Z,17.15
2022-08-26T21:19:18.292Z,14.35
2022-08-26T21:21:46.424Z,17.80
2022-08-26T21:24:13.415Z,15.25
2022-08-26T21:26:40.325Z,16.83
2022-08-26T21:29:09.684Z,12.95
2022-08-26T21:31:40.020Z,24.92
2022-08-26T21:34:09.505Z,15.35
2022-08-26T21:36:36.411Z,14.10
2022-08-26T21:39:05.918Z,15.80
2022-08-26T21:41:34.915Z,18.75
2022-08-26T21:44:01.829Z,15.77
2022-08-26T21:46:29.956Z,20.42
2022-08-26T21:49:02.420Z,16.27
2022-08-26T21:51:32.614Z,26.52
2022-08-26T21:54:00.687Z,26.17
2022-08-26T21:56:29.606Z,17.05
2022-08-26T21:58:58.331Z,20.02
2022-08-26T22:01:27.841Z,14.27
2022-08-26T22:03:54.802Z,15.82
2022-08-26T22:06:23.789Z,18.85
2022-08-26T22:08:51.125Z,21.65
2022-08-26T22:11:19.073Z,18.17
2022-08-26T22:13:46.664Z,19.67
2022-08-26T22:16:14.422Z,20.20
2022-08-26T22:18:43.868Z,19.45
2022-08-26T22:21:17.626Z,15.45
2022-08-26T22:23:45.248Z,23.38
2022-08-26T22:26:14.778Z,17.20
2022-08-26T22:28:47.533Z,21.35
2022-08-26T22:31:15.160Z,22.08
2022-08-26T22:33:44.883Z,15.80
2022-08-26T22:36:24.168Z,18.65
2022-08-26T22:38:51.101Z,22.73
2022-08-26T22:41:18.422Z,22.25
2022-08-26T22:43:45.801Z,18.17
2022-08-26T22:46:20.593Z,22.88
2022-08-26T22:48:47.710Z,19.85
2022-08-26T22:51:21.421Z,23.58
2022-08-26T22:53:48.462Z,23.92
2022-08-26T22:56:15.539Z,29.95
2022-08-26T22:58:42.423Z,18.67
2022-08-26T23:01:09.451Z,27.60
2022-08-26T23:03:36.424Z,25.15
2022-08-26T23:06:06.572Z,22.52
2022-08-26T23:08:33.409Z,22.30
2022-08-26T23:11:00.252Z,19.85
2022-08-26T23:13:27.674Z,25.60
2022-08-26T23:16:01.338Z,17.98
2022-08-26T23:18:28.210Z,31.33
2022-08-26T23:20:55.889Z,30.95
2022-08-26T23:23:23.813Z,27.13
2022-08-26T23:25:50.812Z,25.38
2022-08-26T23:28:17.979Z,20.70
2022-08-26T23:30:44.839Z,23.17
2022-08-26T23:33:11.772Z,20.75
2022-08-26T23:35:38.814Z,27.65
2022-08-26T23:38:09.904Z,21.80
2022-08-26T23:40:38.879Z,25.25
2022-08-26T23:43:07.717Z,24.45
2022-08-26T23:45:35.698Z,21.63
2022-08-26T23:48:03.187Z,36.25
2022-08-26T23:50:50.066Z,28.33
2022-08-26T23:53:21.779Z,33.63
2022-08-26T23:55:50.970Z,22.05
2022-08-26T23:58:19.706Z,23.17
